Time;durP1;ratioP1;P1;durP2;ratioP2;P2;SDS_P1;SDS_P2;PMS_P1;PMS_P2;Temp;Humidity;BMP_temperature;BMP_pressure;BME280_temperature;BME280_humidity;BME280_pressure;Samples;Min_cycle;Max_cycle;Signal;HPM_P1;HPM_P2
2021/11/01 00:02:09;;;;;;;10.80;1.30;;;10.20;99.90;;;;;;5073567;28;20031;-76
2021/11/01 00:04:35;;;;;;;8.50;1.60;;;10.20;99.90;;;;;;5074706;28;20029;-77
2021/11/01 00:07:01;;;;;;;11.37;1.60;;;10.20;99.90;;;;;;5073396;28;20033;-78
2021/11/01 00:09:29;;;;;;;6.97;1.53;;;10.20;99.90;;;;;;5056817;28;20063;-77
2021/11/01 00:11:55;;;;;;;10.43;1.40;;;10.10;99.90;;;;;;5074603;28;20035;-78
2021/11/01 00:14:22;;;;;;;14.43;2.00;;;10.10;99.90;;;;;;5056610;28;20074;-78
2021/11/01 00:16:48;;;;;;;10.07;1.50;;;10.10;99.90;;;;;;5073468;28;20330;-78
2021/11/01 00:19:14;;;;;;;9.07;1.63;;;10.10;99.90;;;;;;5073142;28;20023;-77
2021/11/01 00:21:39;;;;;;;10.47;2.03;;;10.00;99.90;;;;;;5072844;28;20439;-78
2021/11/01 00:24:05;;;;;;;9.90;1.37;;;10.00;99.90;;;;;;5039629;28;20025;-79
2021/11/01 00:26:32;;;;;;;9.13;1.70;;;10.10;99.90;;;;;;5072862;28;20426;-76
2021/11/01 00:29:02;;;;;;;11.50;2.00;;;10.10;99.90;;;;;;5073024;28;20021;-79
2021/11/01 00:31:28;;;;;;;10.30;1.73;;;10.00;99.90;;;;;;5056929;28;20425;-78
2021/11/01 00:33:54;;;;;;;10.40;1.40;;;10.00;99.90;;;;;;5072943;28;20064;-78
2021/11/01 00:36:19;;;;;;;6.87;1.43;;;10.10;99.90;;;;;;5074027;28;20029;-78
2021/11/01 00:38:45;;;;;;;11.13;1.90;;;10.00;99.90;;;;;;5074123;28;20021;-78
2021/11/01 00:41:11;;;;;;;12.30;1.77;;;9.90;99.90;;;;;;5073291;28;20495;-79
2021/11/01 00:43:36;;;;;;;7.70;1.80;;;9.90;99.90;;;;;;5073930;28;20111;-78
2021/11/01 00:46:02;;;;;;;7.77;1.53;;;10.00;99.90;;;;;;5073974;28;20069;-78
2021/11/01 00:48:27;;;;;;;12.30;3.40;;;10.00;99.90;;;;;;5039830;28;20119;-77
2021/11/01 00:50:53;;;;;;;14.10;2.33;;;9.90;99.90;;;;;;5056093;28;20025;-77
2021/11/01 00:53:20;;;;;;;10.23;1.87;;;10.00;99.90;;;;;;5073864;28;20017;-78
2021/11/01 00:55:50;;;;;;;8.53;1.83;;;9.90;99.90;;;;;;5072481;28;20052;-78
2021/11/01 00:58:17;;;;;;;8.17;1.47;;;9.90;99.90;;;;;;5071993;28;20050;-78
2021/11/01 01:00:43;;;;;;;7.43;1.90;;;9.90;99.90;;;;;;5073730;28;20493;-77
2021/11/01 01:03:13;;;;;;;9.47;1.87;;;9.80;99.90;;;;;;5073573;28;20113;-76
2021/11/01 01:05:44;;;;;;;8.30;1.40;;;9.80;99.90;;;;;;5073845;28;20362;-82
2021/11/01 01:08:14;;;;;;;10.43;1.87;;;9.90;99.90;;;;;;5073676;28;20035;-79
2021/11/01 01:10:44;;;;;;;8.37;1.40;;;9.80;99.90;;;;;;5065770;28;20036;-83
2021/11/01 01:13:11;;;;;;;11.47;1.90;;;9.80;99.90;;;;;;5071913;28;20020;-77
2021/11/01 01:15:43;;;;;;;10.43;1.20;;;9.80;99.90;;;;;;5072963;28;20373;-78
2021/11/01 01:18:15;;;;;;;9.53;1.63;;;9.70;99.90;;;;;;5072124;28;20023;-76
2021/11/01 01:20:42;;;;;;;8.80;1.20;;;9.70;99.90;;;;;;5071948;28;20051;-77
2021/11/01 01:23:08;;;;;;;6.70;1.30;;;9.60;99.90;;;;;;5072193;28;20029;-77
2021/11/01 01:25:41;;;;;;;8.53;1.60;;;9.80;99.90;;;;;;5073144;28;20074;-82
2021/11/01 01:28:14;;;;;;;6.20;1.20;;;9.70;99.90;;;;;;5057176;28;20451;-83
2021/11/01 01:30:40;;;;;;;8.70;1.60;;;9.70;99.90;;;;;;5071807;28;20121;-76
2021/11/01 01:33:09;;;;;;;11.87;1.03;;;9.70;99.90;;;;;;5072029;28;20033;-76
2021/11/01 01:35:37;;;;;;;7.73;1.30;;;9.70;99.90;;;;;;5055669;28;20432;-77
2021/11/01 01:38:03;;;;;;;6.97;1.67;;;9.60;99.90;;;;;;5071806;28;20025;-79
2021/11/01 01:40:29;;;;;;;6.23;1.10;;;9.60;99.90;;;;;;5072092;28;20476;-77
2021/11/01 01:42:55;;;;;;;7.60;1.03;;;9.60;99.90;;;;;;5073103;28;20032;-77
2021/11/01 01:45:21;;;;;;;5.87;1.40;;;9.60;99.90;;;;;;5071916;28;20438;-80
2021/11/01 01:47:47;;;;;;;10.90;1.30;;;9.60;99.90;;;;;;5072957;28;20036;-78
2021/11/01 01:50:14;;;;;;;10.90;1.60;;;9.60;99.90;;;;;;5073305;28;20039;-81
2021/11/01 01:52:41;;;;;;;5.00;1.10;;;9.60;99.90;;;;;;5072959;28;20483;-77
2021/11/01 01:55:10;;;;;;;4.20;1.00;;;9.60;99.90;;;;;;5072996;28;20082;-78
2021/11/01 01:57:36;;;;;;;6.30;1.20;;;9.60;99.90;;;;;;5071605;28;20029;-78
2021/11/01 02:00:08;;;;;;;7.47;1.33;;;9.50;99.90;;;;;;5071632;28;20408;-77
2021/11/01 02:02:34;;;;;;;6.67;1.00;;;9.50;99.90;;;;;;5072931;28;20043;-77
2021/11/01 02:05:00;;;;;;;11.17;1.17;;;9.50;99.90;;;;;;5071501;28;20119;-78
2021/11/01 02:07:37;;;;;;;7.03;1.07;;;9.50;99.90;;;;;;5071517;28;20074;-77
2021/11/01 02:10:09;;;;;;;7.77;1.40;;;9.50;99.90;;;;;;5074466;28;20115;-78
2021/11/01 02:12:41;;;;;;;8.00;1.17;;;9.50;99.90;;;;;;5076410;28;20389;-78
2021/11/01 02:15:19;;;;;;;8.70;1.73;;;9.50;99.90;;;;;;5075314;28;20021;-78
2021/11/01 02:17:48;;;;;;;8.93;0.90;;;9.50;99.90;;;;;;5075151;28;20017;-79
2021/11/01 02:20:28;;;;;;;6.37;1.00;;;9.40;99.90;;;;;;5076316;28;20541;-77
2021/11/01 02:23:13;;;;;;;6.13;1.30;;;9.50;99.90;;;;;;5073279;28;20031;-79
2021/11/01 02:25:48;;;;;;;7.93;1.20;;;9.40;99.90;;;;;;5055112;28;20021;-76
2021/11/01 02:28:17;;;;;;;6.60;1.00;;;9.40;99.90;;;;;;5056567;28;20025;-77
2021/11/01 02:30:44;;;;;;;10.57;1.37;;;9.50;99.90;;;;;;5055073;28;20369;-78
2021/11/01 02:33:13;;;;;;;11.23;1.33;;;9.40;99.90;;;;;;5038729;28;20424;-79
2021/11/01 02:35:39;;;;;;;8.40;1.30;;;9.40;99.90;;;;;;5038324;28;20465;-78
2021/11/01 02:38:05;;;;;;;5.23;1.10;;;9.40;99.90;;;;;;5038605;28;20087;-77
2021/11/01 02:40:32;;;;;;;5.77;1.40;;;9.40;99.90;;;;;;5055232;28;20485;-78
2021/11/01 02:42:59;;;;;;;12.90;1.37;;;9.30;99.90;;;;;;5055114;28;20025;-79
2021/11/01 02:45:26;;;;;;;9.23;1.00;;;9.40;99.90;;;;;;5056312;28;20029;-78
2021/11/01 02:47:52;;;;;;;7.03;1.30;;;9.40;99.90;;;;;;5056142;28;20032;-78
2021/11/01 02:50:19;;;;;;;7.93;1.10;;;9.30;99.90;;;;;;5022102;28;20029;-77
2021/11/01 02:52:44;;;;;;;6.40;1.00;;;9.40;99.90;;;;;;5054774;28;20033;-78
2021/11/01 02:55:12;;;;;;;10.23;1.30;;;9.30;99.90;;;;;;5038071;28;20036;-76
2021/11/01 02:57:39;;;;;;;11.23;1.23;;;9.40;99.90;;;;;;5056093;28;20108;-78
2021/11/01 03:00:06;;;;;;;6.43;1.73;;;9.40;99.90;;;;;;5054871;28;20021;-78
2021/11/01 03:02:34;;;;;;;6.47;1.20;;;9.40;99.90;;;;;;5054431;28;20037;-78
2021/11/01 03:05:05;;;;;;;7.07;1.40;;;9.40;99.90;;;;;;5038083;28;20593;-78
2021/11/01 03:07:32;;;;;;;5.00;0.93;;;9.40;99.90;;;;;;5054458;28;20106;-77
2021/11/01 03:09:58;;;;;;;5.30;1.23;;;9.40;99.90;;;;;;5055840;28;20430;-79
2021/11/01 03:12:25;;;;;;;7.53;1.00;;;9.40;99.90;;;;;;5055422;28;20029;-78
2021/11/01 03:14:56;;;;;;;12.10;1.57;;;9.40;99.90;;;;;;5037727;28;20108;-79
2021/11/01 03:17:23;;;;;;;6.90;1.30;;;9.40;99.90;;;;;;5038123;28;20021;-76
2021/11/01 03:19:54;;;;;;;5.90;1.20;;;9.40;99.90;;;;;;5053917;28;20033;-78
2021/11/01 03:22:20;;;;;;;9.90;1.13;;;9.30;99.90;;;;;;5055519;28;20171;-78
2021/11/01 03:24:51;;;;;;;5.70;1.00;;;9.40;99.90;;;;;;5038145;28;20432;-77
2021/11/01 03:27:18;;;;;;;10.43;1.80;;;9.40;99.90;;;;;;5055157;28;20050;-79
2021/11/01 03:29:45;;;;;;;8.10;1.77;;;9.30;99.90;;;;;;5037851;28;20039;-77
2021/11/01 03:32:12;;;;;;;6.57;1.40;;;9.30;99.90;;;;;;5055079;28;20033;-79
2021/11/01 03:34:39;;;;;;;9.20;1.30;;;9.30;99.90;;;;;;5037398;28;20025;-78
2021/11/01 03:37:11;;;;;;;9.93;1.00;;;9.40;99.90;;;;;;5055150;28;20028;-77
2021/11/01 03:39:39;;;;;;;5.70;1.13;;;9.40;99.90;;;;;;5053965;28;20120;-78
2021/11/01 03:42:08;;;;;;;8.23;1.03;;;9.30;99.90;;;;;;5053975;28;20017;-79
2021/11/01 03:44:37;;;;;;;6.13;0.80;;;9.30;99.90;;;;;;5055273;28;20037;-79
2021/11/01 03:47:05;;;;;;;10.37;1.10;;;9.30;99.90;;;;;;5055388;28;20108;-79
2021/11/01 03:49:35;;;;;;;9.60;1.20;;;9.30;99.90;;;;;;5053802;28;20040;-78
2021/11/01 03:54:33;;;;;;;8.07;1.50;;;9.30;99.90;;;;;;5055134;28;20029;-80
2021/11/01 03:56:59;;;;;;;9.07;1.20;;;9.20;99.90;;;;;;5053902;28;20025;-77
2021/11/01 03:59:26;;;;;;;9.80;1.63;;;9.30;99.90;;;;;;5037090;28;20017;-78
2021/11/01 04:01:52;;;;;;;5.87;1.50;;;9.20;99.90;;;;;;5054783;28;20025;-77
2021/11/01 04:04:18;;;;;;;8.40;1.30;;;9.30;99.90;;;;;;5054618;28;20056;-77
2021/11/01 04:06:45;;;;;;;5.77;1.33;;;9.20;99.90;;;;;;5054600;28;20033;-77
2021/11/01 04:09:13;;;;;;;9.77;1.57;;;9.30;99.90;;;;;;5054664;28;20037;-77
2021/11/01 04:11:43;;;;;;;9.13;1.00;;;9.20;99.90;;;;;;5054772;28;20025;-78
2021/11/01 04:14:38;;;;;;;8.73;1.70;;;9.20;99.90;;;;;;5054488;28;20075;-78
2021/11/01 04:17:09;;;;;;;5.70;1.30;;;9.20;99.90;;;;;;5054432;28;20029;-78
2021/11/01 04:19:43;;;;;;;9.10;1.37;;;9.20;99.90;;;;;;5037671;28;20025;-78
2021/11/01 04:22:09;;;;;;;5.13;1.30;;;9.20;99.90;;;;;;5037771;28;20041;-83
2021/11/01 04:24:34;;;;;;;6.93;1.20;;;9.20;99.90;;;;;;5054214;28;20033;-80
2021/11/01 04:27:00;;;;;;;5.60;1.10;;;9.20;99.90;;;;;;5053207;28;20052;-80
2021/11/01 04:29:29;;;;;;;6.37;1.43;;;9.20;99.90;;;;;;5036509;28;20025;-77
2021/11/01 04:32:04;;;;;;;12.10;1.97;;;9.20;99.90;;;;;;5052483;28;20029;-84
2021/11/01 04:34:35;;;;;;;7.87;1.80;;;9.30;99.90;;;;;;5037565;28;20115;-77
2021/11/01 04:37:01;;;;;;;6.43;1.30;;;9.30;99.90;;;;;;5052813;28;20493;-77
2021/11/01 04:39:36;;;;;;;8.17;1.20;;;9.30;99.90;;;;;;5053304;28;20140;-77
2021/11/01 04:55:28;;;;;;;16.93;2.03;;;9.30;99.90;;;;;;5053614;28;20044;-85
2021/11/01 04:57:55;;;;;;;10.60;1.90;;;9.30;99.90;;;;;;5053519;28;20020;-81
2021/11/01 05:00:21;;;;;;;6.53;1.60;;;9.30;99.90;;;;;;5067819;28;20021;-83
2021/11/01 05:02:55;;;;;;;8.30;1.60;;;9.30;99.90;;;;;;5052272;28;20056;-77
2021/11/01 05:05:21;;;;;;;5.03;1.17;;;9.20;99.90;;;;;;5052131;28;20021;-77
2021/11/01 05:07:47;;;;;;;14.80;1.80;;;9.20;99.90;;;;;;5053458;28;20090;-78
2021/11/01 05:10:38;;;;;;;8.23;1.23;;;9.20;99.90;;;;;;5052039;28;20075;-78
2021/11/01 05:13:16;;;;;;;7.23;1.50;;;9.20;99.90;;;;;;5051789;28;20021;-77
2021/11/01 05:15:49;;;;;;;5.93;1.40;;;9.20;99.90;;;;;;5072958;28;20025;-79
2021/11/01 05:18:30;;;;;;;8.10;1.73;;;9.20;99.90;;;;;;5073784;28;20021;-77
2021/11/01 05:21:18;;;;;;;9.63;1.10;;;9.20;99.90;;;;;;5071986;28;20048;-80
2021/11/01 05:23:53;;;;;;;10.17;1.63;;;9.20;99.90;;;;;;5058737;28;20590;-77
2021/11/01 05:26:32;;;;;;;8.23;1.40;;;9.20;99.90;;;;;;5072355;28;20071;-78
2021/11/01 05:29:01;;;;;;;12.03;1.40;;;9.20;99.90;;;;;;5057924;28;20025;-82
2021/11/01 05:31:28;;;;;;;6.07;1.40;;;9.20;99.90;;;;;;5039665;28;20021;-78
2021/11/01 05:34:08;;;;;;;12.57;1.63;;;9.10;99.90;;;;;;5072043;28;20029;-78
2021/11/01 05:36:34;;;;;;;14.30;1.90;;;9.20;99.90;;;;;;5072991;28;20101;-77
2021/11/01 05:39:00;;;;;;;10.97;1.77;;;9.20;99.90;;;;;;5055243;28;20067;-78
2021/11/01 05:41:26;;;;;;;8.30;1.80;;;9.20;99.90;;;;;;5073105;28;20035;-78
2021/11/01 05:43:52;;;;;;;7.93;1.30;;;9.20;99.90;;;;;;5074710;28;20025;-78
2021/11/01 05:46:18;;;;;;;7.93;1.73;;;9.20;99.90;;;;;;5077238;28;20086;-80
2021/11/01 05:49:03;;;;;;;7.80;1.37;;;9.20;99.90;;;;;;5076441;28;20024;-77
2021/11/01 05:51:30;;;;;;;10.77;1.30;;;9.20;99.90;;;;;;5076326;28;21103;-81
2021/11/01 05:53:59;;;;;;;6.93;1.30;;;9.20;99.90;;;;;;5078381;28;20085;-78
2021/11/01 05:56:36;;;;;;;12.17;1.30;;;9.20;99.90;;;;;;5076754;28;20021;-79
2021/11/01 06:15:38;;;;;;;9.77;1.50;;;9.10;99.90;;;;;;5054762;28;20119;-78
2021/11/01 06:18:04;;;;;;;14.57;1.63;;;9.20;99.90;;;;;;5054915;28;20167;-77
2021/11/01 06:20:29;;;;;;;6.97;1.27;;;9.20;99.90;;;;;;5053054;28;20049;-78
2021/11/01 06:22:55;;;;;;;11.50;1.40;;;9.20;99.90;;;;;;5076395;28;20032;-79
2021/11/01 06:25:21;;;;;;;9.67;1.43;;;9.20;99.90;;;;;;5038769;28;20041;-77
2021/11/01 06:27:53;;;;;;;8.77;1.30;;;9.20;99.90;;;;;;5055168;28;20037;-78
2021/11/01 06:30:39;;;;;;;14.07;1.43;;;9.20;99.90;;;;;;5055296;28;20036;-79
2021/11/01 07:19:05;;;;;;;9.77;1.90;;;9.70;99.90;;;;;;5055484;28;20385;-77
2021/11/01 07:30:25;;;;;;;12.65;2.38;;;9.80;99.90;;;;;;5053950;28;20048;-79
2021/11/01 08:28:23;;;;;;;8.67;1.40;;;10.20;99.90;;;;;;5091027;27;20398;-79
2021/11/01 08:36:08;;;;;;;6.00;1.15;;;10.30;99.90;;;;;;5090248;28;20499;-78
2021/11/01 08:39:12;;;;;;;9.30;1.87;;;10.30;99.90;;;;;;5090154;28;20396;-79
2021/11/01 09:09:47;;;;;;;7.63;1.00;;;11.20;99.90;;;;;;5069030;28;20032;-78
2021/11/01 09:21:51;;;;;;;7.55;1.40;;;11.30;99.90;;;;;;5068564;28;20037;-78
2021/11/01 09:26:52;;;;;;;11.98;1.63;;;11.30;99.90;;;;;;5069563;28;20059;-78
2021/11/01 09:37:54;;;;;;;7.95;1.02;;;11.80;99.90;;;;;;5062829;28;19915;-78
2021/11/01 09:43:00;;;;;;;;;;;12.10;99.90;;;;;;5055699;28;20537;-78
2021/11/01 09:45:27;;;;;;;7.57;0.70;;;12.20;99.90;;;;;;5054637;28;20007;-77
2021/11/01 09:47:53;;;;;;;4.13;0.70;;;12.20;99.70;;;;;;5056278;28;20450;-78
2021/11/01 09:50:22;;;;;;;5.25;0.63;;;12.50;99.90;;;;;;5038134;28;20029;-79
2021/11/01 09:52:56;;;;;;;5.95;1.10;;;12.60;99.50;;;;;;5056074;28;20029;-79
2021/11/01 10:00:33;;;;;;;;;;;13.70;99.90;;;;;;5056666;28;20036;-78
2021/11/01 10:03:01;;;;;;;4.22;0.60;;;14.40;99.90;;;;;;5054599;28;20365;-78
2021/11/01 10:05:26;;;;;;;2.63;0.60;;;15.00;99.90;;;;;;5022397;28;20025;-78
2021/11/01 10:07:52;;;;;;;6.45;0.75;;;15.50;99.90;;;;;;5055506;28;20021;-79
2021/11/01 10:10:20;;;;;;;5.28;0.63;;;16.10;99.90;;;;;;5038247;28;20025;-81
2021/11/01 10:12:48;;;;;;;2.97;0.55;;;16.60;99.90;;;;;;5055464;28;20017;-78
2021/11/01 10:18:12;;;;;;;5.55;0.93;;;16.60;98.20;;;;;;5055983;28;20435;-78
2021/11/01 10:20:47;;;;;;;3.58;0.70;;;16.60;98.10;;;;;;5054225;28;20014;-80
2021/11/01 10:23:19;;;;;;;3.13;0.65;;;16.80;97.10;;;;;;5054157;28;20025;-78
2021/11/01 10:25:46;;;;;;;5.53;0.60;;;16.90;97.60;;;;;;5055014;28;20100;-79
2021/11/01 10:28:12;;;;;;;4.28;0.55;;;17.10;96.00;;;;;;5055579;28;20675;-80
2021/11/01 10:30:39;;;;;;;6.18;0.98;;;17.30;93.70;;;;;;5037784;28;20029;-79
2021/11/01 10:33:07;;;;;;;6.60;0.90;;;17.40;88.20;;;;;;5053604;28;20017;-79
2021/11/01 10:35:34;;;;;;;6.55;1.00;;;17.30;84.80;;;;;;5053792;28;20438;-77
2021/11/01 10:38:18;;;;;;;8.18;0.98;;;17.20;85.20;;;;;;5054978;28;20424;-77
2021/11/01 10:46:30;;;;;;;6.88;0.85;;;17.80;75.40;;;;;;5055078;28;20116;-77
2021/11/01 11:13:19;;;;;;;4.90;0.93;;;18.10;68.30;;;;;;5054888;28;20037;-79
2021/11/01 11:15:51;;;;;;;5.05;0.75;;;18.20;63.40;;;;;;5053458;28;20035;-78
2021/11/01 11:40:10;;;;;;;5.60;0.90;;;20.00;58.10;;;;;;5053762;28;20029;-78
2021/11/01 11:43:10;;;;;;;4.47;0.80;;;19.60;57.60;;;;;;5052821;28;20458;-80
2021/11/01 11:50:45;;;;;;;4.03;0.68;;;18.80;58.60;;;;;;5052712;28;20029;-80
2021/11/01 11:53:11;;;;;;;4.30;0.75;;;18.80;60.60;;;;;;5035995;28;20078;-80
2021/11/01 11:55:37;;;;;;;3.33;0.75;;;18.90;60.20;;;;;;5052571;28;20029;-80
2021/11/01 11:58:05;;;;;;;5.05;0.88;;;19.00;59.70;;;;;;5053767;28;20106;-79
2021/11/01 12:00:34;;;;;;;7.05;0.90;;;18.90;59.40;;;;;;5053524;28;20033;-80
2021/11/01 12:03:17;;;;;;;4.40;0.80;;;18.70;58.90;;;;;;5053684;28;20021;-79
2021/11/01 12:05:59;;;;;;;4.90;0.70;;;18.30;59.10;;;;;;5052399;28;20056;-81
2021/11/01 12:08:36;;;;;;;3.35;0.80;;;17.90;60.40;;;;;;5052245;28;20017;-79
2021/11/01 12:18:59;;;;;;;7.57;1.00;;;19.10;60.40;;;;;;5052903;28;20133;-79
2021/11/01 12:21:27;;;;;;;3.92;0.75;;;19.70;59.30;;;;;;5052152;28;20056;-79
2021/11/01 12:23:54;;;;;;;4.50;0.70;;;20.10;58.30;;;;;;5035700;28;20029;-79
2021/11/01 12:26:22;;;;;;;3.88;0.55;;;20.40;57.90;;;;;;5051981;28;20091;-78
2021/11/01 12:28:53;;;;;;;2.47;0.57;;;20.80;55.90;;;;;;5052195;28;20469;-80
2021/11/01 12:31:20;;;;;;;5.72;0.70;;;20.90;53.90;;;;;;5053277;28;20027;-79
2021/11/01 12:34:22;;;;;;;4.63;0.70;;;20.90;54.70;;;;;;5052061;28;20469;-79
2021/11/01 12:39:23;;;;;;;5.93;1.05;;;20.30;54.00;;;;;;5052186;28;20513;-79
2021/11/01 12:42:41;;;;;;;6.38;0.80;;;20.20;54.80;;;;;;5051776;28;20025;-80
2021/11/01 12:58:41;;;;;;;3.40;0.70;;;18.20;56.50;;;;;;5053391;28;20106;-79
2021/11/01 13:01:13;;;;;;;6.00;1.05;;;17.80;57.60;;;;;;5036159;28;20024;-78
2021/11/01 13:03:47;;;;;;;8.55;0.70;;;17.50;58.70;;;;;;5051779;28;20041;-79
2021/11/01 13:06:22;;;;;;;8.35;0.75;;;17.40;59.70;;;;;;5052932;28;20393;-79
2021/11/01 13:08:49;;;;;;;8.82;0.80;;;17.40;60.00;;;;;;5051459;28;20473;-80
2021/11/01 13:11:28;;;;;;;3.67;0.70;;;17.40;60.40;;;;;;5053083;28;20044;-78
2021/11/01 13:19:15;;;;;;;;;;;18.80;57.50;;;;;;5057357;28;20591;-79
2021/11/01 13:21:53;;;;;;;4.40;0.63;;;19.30;56.50;;;;;;5056620;28;19912;-79
2021/11/01 13:24:22;;;;;;;5.28;0.57;;;19.80;55.70;;;;;;5055011;28;20032;-78
2021/11/01 13:26:57;;;;;;;5.55;0.98;;;20.00;54.70;;;;;;5054778;28;20052;-79
2021/11/01 13:34:43;;;;;;;3.35;0.70;;;19.70;54.80;;;;;;5055523;28;20036;-78
2021/11/01 13:37:48;;;;;;;6.30;0.80;;;19.30;55.00;;;;;;5057638;28;19916;-78
2021/11/01 13:40:16;;;;;;;4.22;0.75;;;19.00;55.70;;;;;;5038667;28;20021;-79
2021/11/01 13:42:59;;;;;;;3.85;1.00;;;19.20;56.00;;;;;;5055942;28;20048;-77
2021/11/01 13:45:26;;;;;;;6.18;0.88;;;19.70;56.20;;;;;;5054496;28;20631;-78
2021/11/01 13:47:57;;;;;;;5.90;0.68;;;19.80;55.50;;;;;;5055838;28;20021;-76
2021/11/01 13:50:35;;;;;;;5.78;0.88;;;19.70;55.20;;;;;;5055812;28;20025;-76
2021/11/01 13:53:07;;;;;;;5.70;0.68;;;19.50;55.60;;;;;;5054492;28;20017;-76
2021/11/01 13:55:40;;;;;;;3.83;0.60;;;19.30;55.20;;;;;;5054270;28;20031;-76
2021/11/01 14:26:46;;;;;;;3.45;0.68;;;17.30;57.90;;;;;;5054278;28;20540;-76
2021/11/01 14:29:14;;;;;;;5.65;0.70;;;16.30;61.00;;;;;;5054348;28;20044;-77
2021/11/01 15:06:54;;;;;;;3.38;0.70;;;15.90;64.70;;;;;;5053901;28;20446;-75
2021/11/01 15:09:40;;;;;;;5.03;0.65;;;15.80;64.30;;;;;;5052928;28;20033;-78
2021/11/01 15:14:48;;;;;;;2.58;0.40;;;15.80;64.80;;;;;;5053652;28;20465;-76
2021/11/01 15:17:29;;;;;;;5.35;0.50;;;15.80;64.70;;;;;;5039500;28;20032;-77
2021/11/01 15:22:58;;;;;;;3.97;0.70;;;15.60;64.50;;;;;;5020530;28;20037;-75
2021/11/01 15:36:47;;;;;;;;;;;14.70;67.10;;;;;;5053954;28;19911;-77
2021/11/01 16:20:23;;;;;;;5.57;0.85;;;13.50;73.00;;;;;;5053425;28;20388;-75
2021/11/01 16:22:54;;;;;;;9.48;0.82;;;13.40;73.60;;;;;;5052074;28;20107;-75
2021/11/01 16:25:21;;;;;;;3.97;0.80;;;13.40;73.30;;;;;;5053679;28;20473;-77
2021/11/01 16:27:48;;;;;;;8.63;0.85;;;13.40;73.60;;;;;;5052868;28;20051;-75
2021/11/01 16:30:19;;;;;;;5.68;1.00;;;13.30;73.70;;;;;;5052301;28;20112;-75
2021/11/01 16:32:51;;;;;;;7.05;0.68;;;13.30;74.00;;;;;;5051610;28;20032;-75
2021/11/01 16:35:23;;;;;;;7.05;1.00;;;13.20;74.30;;;;;;5053306;28;20029;-74
2021/11/01 16:38:18;;;;;;;6.85;0.70;;;13.20;74.40;;;;;;5051685;28;20021;-75
2021/11/01 16:40:43;;;;;;;10.80;1.10;;;13.20;74.70;;;;;;5051232;28;20056;-76
2021/11/01 16:43:15;;;;;;;8.10;1.20;;;13.10;75.00;;;;;;5052899;28;20025;-76
2021/11/01 16:45:43;;;;;;;9.95;1.05;;;13.00;75.20;;;;;;5051437;28;20029;-74
2021/11/01 16:48:09;;;;;;;9.15;1.08;;;13.00;75.30;;;;;;5037410;28;20124;-75
2021/11/01 16:50:36;;;;;;;7.20;0.88;;;13.00;76.20;;;;;;5055622;28;20111;-76
2021/11/01 16:53:02;;;;;;;7.43;0.90;;;13.00;75.70;;;;;;5055836;28;20082;-79
2021/11/01 16:55:35;;;;;;;9.02;1.27;;;13.00;75.80;;;;;;5056037;28;20033;-81
2021/11/01 16:58:13;;;;;;;5.75;1.88;;;13.00;76.00;;;;;;5040246;28;20021;-81
2021/11/01 17:00:55;;;;;;;3.80;0.88;;;13.00;78.40;;;;;;5056952;28;20465;-84
2021/11/01 17:03:34;;;;;;;5.25;0.60;;;12.80;83.60;;;;;;5041535;28;20056;-81
2021/11/01 17:21:16;;;;;;;2.03;0.50;;;11.70;89.00;;;;;;5056966;28;20067;-80
2021/11/01 17:22:11;;;;;;;2.27;0.83;;;11.00;91.90;;;;;;5058132;28;20039;-80
2021/11/01 17:24:47;;;;;;;1.63;0.70;;;11.00;92.40;;;;;;5056962;28;20027;-78
2021/11/01 17:27:37;;;;;;;2.30;0.53;;;10.90;92.60;;;;;;5054101;28;20448;-77
2021/11/01 17:35:50;;;;;;;2.27;0.50;;;10.70;92.80;;;;;;5051481;28;20040;-76
2021/11/01 18:39:26;;;;;;;2.80;0.60;;;10.40;95.40;;;;;;5050242;28;20037;-76
2021/11/01 18:44:58;;;;;;;3.20;0.55;;;10.30;95.50;;;;;;5054499;28;20484;-76
2021/11/01 18:53:07;;;;;;;2.93;0.70;;;10.20;95.50;;;;;;5053315;28;20033;-76
2021/11/01 18:55:32;;;;;;;1.50;0.60;;;10.20;95.50;;;;;;5053250;28;20017;-74
2021/11/01 18:58:01;;;;;;;2.10;0.80;;;10.20;95.50;;;;;;5053735;28;20021;-74
2021/11/01 19:00:28;;;;;;;2.60;0.77;;;10.10;95.40;;;;;;5054615;28;20025;-75
2021/11/01 19:02:57;;;;;;;2.90;1.00;;;10.10;95.30;;;;;;5053382;28;20025;-76
2021/11/01 19:08:03;;;;;;;2.50;0.87;;;9.90;95.30;;;;;;5052963;28;20434;-76
2021/11/01 20:13:19;;;;;;;3.90;1.87;;;9.20;96.40;;;;;;5043282;28;20032;-76
2021/11/01 21:25:55;;;;;;;7.40;2.77;;;8.90;97.10;;;;;;5052691;28;20036;-77
2021/11/01 21:28:21;;;;;;;5.70;3.00;;;8.80;97.10;;;;;;5051201;28;20060;-77
2021/11/01 21:30:48;;;;;;;6.53;3.30;;;8.90;97.10;;;;;;5034666;28;20032;-78
2021/11/01 21:33:22;;;;;;;9.37;3.27;;;8.90;97.30;;;;;;5035128;28;20477;-78
2021/11/01 21:35:54;;;;;;;7.93;3.17;;;8.80;97.30;;;;;;5039427;28;20132;-78
2021/11/01 21:38:19;;;;;;;7.53;3.00;;;8.80;97.30;;;;;;5038908;28;20116;-78
2021/11/01 21:40:48;;;;;;;6.07;2.83;;;8.80;97.40;;;;;;5054656;28;20128;-76
2021/11/01 21:43:13;;;;;;;10.77;3.50;;;8.80;97.50;;;;;;5054767;28;20063;-76
2021/11/01 21:45:40;;;;;;;8.30;3.10;;;8.80;97.50;;;;;;5054698;28;20436;-75
2021/11/01 21:48:05;;;;;;;6.53;3.03;;;8.80;97.50;;;;;;5055816;28;20029;-75
2021/11/01 21:50:31;;;;;;;6.13;2.93;;;8.90;97.60;;;;;;5052840;28;20087;-76
2021/11/01 21:53:00;;;;;;;6.23;3.07;;;8.80;97.60;;;;;;5056358;28;20021;-75
2021/11/01 21:55:27;;;;;;;7.10;2.80;;;8.80;97.70;;;;;;5054633;28;20021;-76
2021/11/01 21:57:58;;;;;;;7.47;2.97;;;8.70;97.70;;;;;;5038189;28;20021;-76
2021/11/01 22:00:58;;;;;;;7.30;3.00;;;8.80;97.80;;;;;;5054369;28;20033;-75
2021/11/01 22:34:37;;;;;;;6.00;3.00;;;8.70;97.90;;;;;;5054487;28;20033;-76
2021/11/01 22:44:49;;;;;;;4.77;2.10;;;8.60;97.90;;;;;;5055307;28;20124;-76
2021/11/01 22:58:02;;;;;;;6.13;2.63;;;8.60;98.00;;;;;;5055252;28;19970;-77
2021/11/01 23:00:41;;;;;;;7.23;3.03;;;8.50;97.90;;;;;;5053706;28;20488;-76
2021/11/01 23:03:14;;;;;;;11.53;2.97;;;8.50;97.90;;;;;;5053353;28;20017;-77
2021/11/01 23:31:25;;;;;;;7.60;3.25;;;8.40;98.00;;;;;;5053639;28;20487;-77
2021/11/01 23:33:04;;;;;;;11.15;3.65;;;8.30;98.10;;;;;;5053654;28;20154;-76
2021/11/01 23:35:30;;;;;;;10.43;4.37;;;8.20;98.10;;;;;;5053982;28;20517;-76
2021/11/01 23:37:56;;;;;;;8.10;3.90;;;8.20;98.20;;;;;;5052685;28;20527;-76
2021/11/01 23:40:22;;;;;;;8.70;4.10;;;8.10;98.20;;;;;;5052682;28;20029;-77
2021/11/01 23:42:48;;;;;;;9.77;3.97;;;8.20;98.50;;;;;;5054021;28;20025;-77
2021/11/01 23:45:13;;;;;;;9.10;3.60;;;8.10;98.20;;;;;;5052738;28;20064;-77
2021/11/01 23:47:39;;;;;;;12.10;4.17;;;8.10;98.30;;;;;;5052692;28;20539;-77
2021/11/01 23:50:05;;;;;;;14.30;4.63;;;8.10;98.40;;;;;;5053104;28;20474;-76
2021/11/01 23:52:52;;;;;;;9.37;4.03;;;8.10;98.30;;;;;;5052523;28;20385;-77
2021/11/01 23:55:17;;;;;;;7.57;3.97;;;8.00;98.30;;;;;;5052650;28;20029;-76
2021/11/01 23:57:43;;;;;;;11.03;3.90;;;8.00;98.30;;;;;;5052522;28;20059;-76
